Time;durP1;ratioP1;P1;durP2;ratioP2;P2;SDS_P1;SDS_P2;PMS_P1;PMS_P2;Temp;Humidity;BMP_temperature;BMP_pressure;BME280_temperature;BME280_humidity;BME280_pressure;Samples;Min_cycle;Max_cycle;Signal;HPM_P1;HPM_P2
2021/09/08 00:00:24;;;;;;;25.00;13.90;;;;;;;;;;5010011;28;20030;-63
2021/09/08 00:02:49;;;;;;;26.20;14.25;;;;;;;;;;4994341;28;20073;-63
2021/09/08 00:05:14;;;;;;;24.88;12.90;;;;;;;;;;4993900;28;20021;-63
2021/09/08 00:07:39;;;;;;;23.00;13.10;;;;;;;;;;4994137;28;20362;-63
2021/09/08 00:10:05;;;;;;;22.48;13.43;;;;;;;;;;4994038;28;20452;-63
2021/09/08 00:12:31;;;;;;;27.13;14.43;;;;;;;;;;5013610;28;20404;-63
2021/09/08 00:14:56;;;;;;;25.20;13.77;;;;;;;;;;5013701;28;20044;-63
2021/09/08 00:17:21;;;;;;;24.42;13.43;;;;;;;;;;4993989;28;20027;-63
2021/09/08 00:19:47;;;;;;;22.00;13.52;;;;;;;;;;4994033;28;20457;-63
2021/09/08 00:22:12;;;;;;;24.70;13.98;;;;;;;;;;5010004;28;20495;-63
2021/09/08 00:24:37;;;;;;;25.27;14.27;;;;;;;;;;5013317;28;20065;-63
2021/09/08 00:27:05;;;;;;;23.25;13.18;;;;;;;;;;4996470;28;20030;-63
2021/09/08 00:29:31;;;;;;;27.98;14.07;;;;;;;;;;4993752;28;20023;-63
2021/09/08 00:31:56;;;;;;;22.00;13.48;;;;;;;;;;4993475;28;20041;-63
2021/09/08 00:34:21;;;;;;;23.55;13.30;;;;;;;;;;4993387;28;20033;-63
2021/09/08 00:36:47;;;;;;;29.92;13.07;;;;;;;;;;4993372;28;20035;-63
2021/09/08 00:39:12;;;;;;;20.48;13.50;;;;;;;;;;4993534;28;20031;-63
2021/09/08 00:41:37;;;;;;;23.90;13.68;;;;;;;;;;5006206;28;20096;-63
2021/09/08 00:44:06;;;;;;;22.20;13.43;;;;;;;;;;5013123;28;20018;-63
2021/09/08 00:46:31;;;;;;;26.05;13.65;;;;;;;;;;5012743;28;20034;-63
2021/09/08 00:48:57;;;;;;;26.38;13.88;;;;;;;;;;5045034;28;20372;-63
2021/09/08 00:51:22;;;;;;;24.13;14.55;;;;;;;;;;5001706;28;20049;-63
2021/09/08 00:53:50;;;;;;;23.65;12.63;;;;;;;;;;4993294;28;20051;-63
2021/09/08 00:56:16;;;;;;;24.25;13.40;;;;;;;;;;5003338;28;20038;-63
2021/09/08 00:58:41;;;;;;;24.90;13.85;;;;;;;;;;5013074;28;20479;-63
2021/09/08 01:01:06;;;;;;;25.08;13.55;;;;;;;;;;5003256;28;20105;-63
2021/09/08 01:03:31;;;;;;;22.98;13.65;;;;;;;;;;4993373;28;20081;-63
2021/09/08 01:05:57;;;;;;;28.27;14.68;;;;;;;;;;5000458;28;20395;-63
2021/09/08 01:08:22;;;;;;;25.70;15.27;;;;;;;;;;5012617;28;20491;-63
2021/09/08 01:10:47;;;;;;;26.65;13.98;;;;;;;;;;5011308;28;20162;-63
2021/09/08 01:13:12;;;;;;;29.75;14.63;;;;;;;;;;5012860;28;20026;-63
2021/09/08 01:15:38;;;;;;;24.67;14.88;;;;;;;;;;5007324;28;20030;-63
2021/09/08 01:18:03;;;;;;;30.15;15.98;;;;;;;;;;5012110;28;20053;-63
2021/09/08 01:20:28;;;;;;;27.30;15.35;;;;;;;;;;5012410;28;20026;-63
2021/09/08 01:22:53;;;;;;;27.77;14.95;;;;;;;;;;5012628;28;20026;-63
2021/09/08 01:25:22;;;;;;;29.38;15.70;;;;;;;;;;5012284;28;20028;-63
2021/09/08 01:27:48;;;;;;;29.17;15.82;;;;;;;;;;5012814;28;20075;-63
2021/09/08 01:30:17;;;;;;;30.67;15.52;;;;;;;;;;5012230;28;20021;-63
2021/09/08 01:32:42;;;;;;;30.05;15.73;;;;;;;;;;5012616;28;20068;-63
2021/09/08 01:35:07;;;;;;;31.00;16.42;;;;;;;;;;5012058;28;20061;-63
2021/09/08 01:37:33;;;;;;;26.77;15.23;;;;;;;;;;5012550;28;20029;-63
2021/09/08 01:39:58;;;;;;;27.15;15.15;;;;;;;;;;5012806;28;20026;-63
2021/09/08 01:42:23;;;;;;;28.33;15.13;;;;;;;;;;5012199;28;20030;-63
2021/09/08 01:44:48;;;;;;;32.03;16.55;;;;;;;;;;5012587;28;20022;-63
2021/09/08 01:47:14;;;;;;;27.95;15.45;;;;;;;;;;5014209;28;20113;-63
2021/09/08 01:49:39;;;;;;;28.27;15.80;;;;;;;;;;5016275;28;20101;-63
2021/09/08 01:52:04;;;;;;;25.13;14.38;;;;;;;;;;5015706;28;20057;-63
2021/09/08 01:54:30;;;;;;;32.20;16.13;;;;;;;;;;5016059;28;20065;-63
2021/09/08 01:56:55;;;;;;;30.38;17.63;;;;;;;;;;5014362;28;20034;-63
2021/09/08 01:59:20;;;;;;;34.13;16.77;;;;;;;;;;5016195;28;20057;-63
2021/09/08 02:01:46;;;;;;;30.23;15.48;;;;;;;;;;5014359;28;20370;-63
2021/09/08 02:04:11;;;;;;;33.10;17.20;;;;;;;;;;5014736;28;20034;-63
2021/09/08 02:06:40;;;;;;;26.50;16.15;;;;;;;;;;5015559;28;20453;-63
2021/09/08 02:09:05;;;;;;;33.70;16.77;;;;;;;;;;5014404;28;20547;-63
2021/09/08 02:11:30;;;;;;;35.88;17.60;;;;;;;;;;5015504;28;20049;-63
2021/09/08 02:13:56;;;;;;;30.98;18.10;;;;;;;;;;5015755;28;20043;-63
2021/09/08 02:16:21;;;;;;;31.25;17.58;;;;;;;;;;5015299;28;20091;-63
2021/09/08 02:18:49;;;;;;;28.75;17.27;;;;;;;;;;5015874;28;20064;-63
2021/09/08 02:21:15;;;;;;;30.83;16.85;;;;;;;;;;5015349;28;20038;-63
2021/09/08 02:23:40;;;;;;;30.50;17.65;;;;;;;;;;5015557;28;20025;-63
2021/09/08 02:26:05;;;;;;;42.10;18.77;;;;;;;;;;5015271;28;20071;-63
2021/09/08 02:28:30;;;;;;;32.90;17.70;;;;;;;;;;5015537;28;20113;-63
2021/09/08 02:30:56;;;;;;;32.33;17.80;;;;;;;;;;5013819;28;20045;-63
2021/09/08 02:33:21;;;;;;;30.85;16.88;;;;;;;;;;5015271;28;20025;-63
2021/09/08 02:35:46;;;;;;;31.80;16.05;;;;;;;;;;5014958;28;20061;-63
2021/09/08 02:38:12;;;;;;;34.42;16.73;;;;;;;;;;5015659;28;20038;-63
2021/09/08 02:40:37;;;;;;;30.63;16.55;;;;;;;;;;5014943;28;20026;-63
2021/09/08 02:43:02;;;;;;;31.55;16.83;;;;;;;;;;5015689;28;20030;-63
2021/09/08 02:45:27;;;;;;;34.50;17.67;;;;;;;;;;5014933;28;20496;-63
2021/09/08 02:47:53;;;;;;;59.63;18.98;;;;;;;;;;5013947;28;20040;-63
2021/09/08 02:50:18;;;;;;;32.25;16.58;;;;;;;;;;5014762;28;20109;-63
2021/09/08 02:52:43;;;;;;;27.70;16.95;;;;;;;;;;5015068;28;20354;-63
2021/09/08 02:55:08;;;;;;;30.10;16.83;;;;;;;;;;5014676;28;20396;-63
2021/09/08 02:57:33;;;;;;;34.38;17.23;;;;;;;;;;5014673;28;20369;-63
2021/09/08 02:59:59;;;;;;;32.92;16.98;;;;;;;;;;5015038;28;20025;-63
2021/09/08 03:02:24;;;;;;;28.42;16.27;;;;;;;;;;5014287;28;20030;-63
2021/09/08 03:04:49;;;;;;;26.27;15.18;;;;;;;;;;5015020;28;20109;-63
2021/09/08 03:07:14;;;;;;;31.40;16.15;;;;;;;;;;5014415;28;20059;-63
2021/09/08 03:09:40;;;;;;;27.70;16.90;;;;;;;;;;5014676;28;20084;-63
2021/09/08 03:12:05;;;;;;;27.35;15.85;;;;;;;;;;5014364;28;20030;-63
2021/09/08 03:14:30;;;;;;;29.70;16.88;;;;;;;;;;5013356;28;20030;-63
2021/09/08 03:16:55;;;;;;;34.80;18.58;;;;;;;;;;5014294;28;20026;-63
2021/09/08 03:19:21;;;;;;;31.10;17.13;;;;;;;;;;5014149;28;20047;-63
2021/09/08 03:21:46;;;;;;;36.47;18.83;;;;;;;;;;5014070;28;20109;-63
2021/09/08 03:24:11;;;;;;;36.85;18.92;;;;;;;;;;5014604;28;20110;-63
2021/09/08 03:26:36;;;;;;;34.80;18.33;;;;;;;;;;5014072;28;20049;-63
2021/09/08 03:29:01;;;;;;;36.38;18.73;;;;;;;;;;5014395;28;20076;-63
2021/09/08 03:31:27;;;;;;;34.17;18.23;;;;;;;;;;5013942;28;20034;-63
2021/09/08 03:33:52;;;;;;;37.03;18.75;;;;;;;;;;5014390;28;20026;-63
2021/09/08 03:36:17;;;;;;;32.53;18.15;;;;;;;;;;5013764;28;20033;-63
2021/09/08 03:38:42;;;;;;;34.83;18.40;;;;;;;;;;5014491;28;20084;-63
2021/09/08 03:41:08;;;;;;;32.92;18.02;;;;;;;;;;5013828;28;20381;-63
2021/09/08 03:43:33;;;;;;;33.58;17.90;;;;;;;;;;5014435;28;20369;-63
2021/09/08 03:45:59;;;;;;;33.80;17.83;;;;;;;;;;5013741;28;20026;-63
2021/09/08 03:48:24;;;;;;;31.95;16.95;;;;;;;;;;5014601;28;20121;-63
2021/09/08 03:50:50;;;;;;;31.20;17.27;;;;;;;;;;5013638;28;20112;-63
2021/09/08 03:53:15;;;;;;;37.10;18.30;;;;;;;;;;5014221;28;20109;-63
2021/09/08 03:55:40;;;;;;;32.60;18.60;;;;;;;;;;5013639;28;20516;-63
2021/09/08 03:58:05;;;;;;;35.95;19.08;;;;;;;;;;5013772;28;20530;-63
2021/09/08 04:00:30;;;;;;;30.90;16.88;;;;;;;;;;5013712;28;20514;-62
2021/09/08 04:02:56;;;;;;;31.80;17.63;;;;;;;;;;5013826;28;20515;-63
2021/09/08 04:05:21;;;;;;;30.27;16.90;;;;;;;;;;5012145;28;20461;-63
2021/09/08 04:07:46;;;;;;;41.22;17.50;;;;;;;;;;5014010;28;20021;-62
2021/09/08 04:10:11;;;;;;;35.33;19.08;;;;;;;;;;5012677;28;20045;-63
2021/09/08 04:12:37;;;;;;;29.63;17.90;;;;;;;;;;5013761;28;20022;-62
2021/09/08 04:15:02;;;;;;;32.47;18.23;;;;;;;;;;5013345;28;20036;-63
2021/09/08 04:17:27;;;;;;;36.10;19.05;;;;;;;;;;5012552;28;20146;-62
2021/09/08 04:19:53;;;;;;;37.08;19.70;;;;;;;;;;5013629;28;20436;-62
2021/09/08 04:22:18;;;;;;;31.90;18.55;;;;;;;;;;5013213;28;20041;-63
2021/09/08 04:24:43;;;;;;;38.05;18.95;;;;;;;;;;5013723;28;20025;-63
2021/09/08 04:27:08;;;;;;;35.30;18.40;;;;;;;;;;5013084;28;20041;-63
2021/09/08 04:29:33;;;;;;;32.92;17.73;;;;;;;;;;5013245;28;20026;-63
2021/09/08 04:31:59;;;;;;;31.10;17.20;;;;;;;;;;5013015;28;20112;-63
2021/09/08 04:34:24;;;;;;;32.10;17.58;;;;;;;;;;5012035;28;20029;-63
2021/09/08 04:36:49;;;;;;;36.75;18.23;;;;;;;;;;5012644;28;20167;-63
2021/09/08 04:39:14;;;;;;;33.83;18.42;;;;;;;;;;5013435;28;20018;-63
2021/09/08 04:41:39;;;;;;;37.42;19.85;;;;;;;;;;5012737;28;20450;-63
2021/09/08 04:44:05;;;;;;;40.53;19.33;;;;;;;;;;5013115;28;20029;-63
2021/09/08 04:46:30;;;;;;;42.50;19.42;;;;;;;;;;5011665;28;20030;-63
2021/09/08 04:48:56;;;;;;;39.60;19.92;;;;;;;;;;5013242;28;20026;-63
2021/09/08 04:51:21;;;;;;;36.05;18.77;;;;;;;;;;5011531;28;20034;-63
2021/09/08 04:53:46;;;;;;;38.90;20.30;;;;;;;;;;5011823;28;20032;-62
2021/09/08 04:56:11;;;;;;;33.10;18.92;;;;;;;;;;5012686;28;20068;-63
2021/09/08 04:58:37;;;;;;;40.20;22.05;;;;;;;;;;5013202;28;20460;-63
2021/09/08 05:01:02;;;;;;;37.70;20.17;;;;;;;;;;5012457;28;20014;-63
2021/09/08 05:03:27;;;;;;;45.72;21.23;;;;;;;;;;5013039;28;20032;-63
2021/09/08 05:05:52;;;;;;;33.97;19.73;;;;;;;;;;5011115;28;20022;-63
2021/09/08 05:08:17;;;;;;;37.92;19.98;;;;;;;;;;5012661;28;20018;-63
2021/09/08 05:10:43;;;;;;;32.60;18.63;;;;;;;;;;5012514;28;20033;-63
2021/09/08 05:13:08;;;;;;;33.15;17.45;;;;;;;;;;5013007;28;20026;-63
2021/09/08 05:15:33;;;;;;;31.73;17.00;;;;;;;;;;5012334;28;20112;-63
2021/09/08 05:18:01;;;;;;;31.35;15.90;;;;;;;;;;5012919;28;20496;-63
2021/09/08 05:20:27;;;;;;;37.42;18.35;;;;;;;;;;5010751;28;20034;-64
2021/09/08 05:22:52;;;;;;;39.95;19.13;;;;;;;;;;5016309;28;20302;-63
2021/09/08 05:25:18;;;;;;;32.03;18.02;;;;;;;;;;5016425;28;20449;-64
2021/09/08 05:27:43;;;;;;;29.60;17.27;;;;;;;;;;5016687;28;20475;-63
2021/09/08 05:30:08;;;;;;;34.90;18.80;;;;;;;;;;5016166;28;20376;-63
2021/09/08 05:32:33;;;;;;;33.80;17.30;;;;;;;;;;5016573;28;20483;-63
2021/09/08 05:34:59;;;;;;;28.67;15.75;;;;;;;;;;5016656;28;20084;-63
2021/09/08 05:37:24;;;;;;;27.30;15.43;;;;;;;;;;5016546;28;20037;-63
2021/09/08 05:39:49;;;;;;;30.85;16.65;;;;;;;;;;5015124;28;20021;-63
2021/09/08 05:42:15;;;;;;;31.95;17.45;;;;;;;;;;5014651;28;20081;-63
2021/09/08 05:44:40;;;;;;;32.47;17.23;;;;;;;;;;5016407;28;20052;-63
2021/09/08 05:47:05;;;;;;;29.27;17.05;;;;;;;;;;5015766;28;20033;-63
2021/09/08 05:49:30;;;;;;;32.13;16.08;;;;;;;;;;5016349;28;20664;-63
2021/09/08 05:51:55;;;;;;;32.42;15.57;;;;;;;;;;5015763;28;20060;-63
2021/09/08 05:54:21;;;;;;;41.63;16.55;;;;;;;;;;5016087;28;20053;-63
2021/09/08 05:56:46;;;;;;;33.88;16.13;;;;;;;;;;5015677;28;20038;-63
2021/09/08 05:59:11;;;;;;;29.27;14.68;;;;;;;;;;5014692;28;20341;-63
2021/09/08 06:01:36;;;;;;;25.10;13.60;;;;;;;;;;5015544;28;20462;-64
2021/09/08 06:04:02;;;;;;;30.35;14.10;;;;;;;;;;5014722;28;20535;-62
2021/09/08 06:06:27;;;;;;;28.05;13.80;;;;;;;;;;5015738;28;20373;-63
2021/09/08 06:08:52;;;;;;;23.75;13.27;;;;;;;;;;5015619;28;20558;-63
2021/09/08 06:11:17;;;;;;;37.08;13.57;;;;;;;;;;5015411;28;20034;-63
2021/09/08 06:13:43;;;;;;;29.90;13.82;;;;;;;;;;5014522;28;20117;-62
2021/09/08 06:16:08;;;;;;;19.48;12.68;;;;;;;;;;5015911;28;20022;-62
2021/09/08 06:18:33;;;;;;;26.52;13.98;;;;;;;;;;5015651;28;20040;-62
2021/09/08 06:20:58;;;;;;;24.00;13.02;;;;;;;;;;5015272;28;20029;-62
2021/09/08 06:23:24;;;;;;;20.63;12.68;;;;;;;;;;5015979;28;20460;-62
2021/09/08 06:25:49;;;;;;;21.08;12.93;;;;;;;;;;5014183;28;20029;-62
2021/09/08 06:28:14;;;;;;;20.88;12.65;;;;;;;;;;5015782;28;20025;-62
2021/09/08 06:30:40;;;;;;;22.80;14.27;;;;;;;;;;5013819;28;20503;-63
2021/09/08 06:33:05;;;;;;;21.60;14.18;;;;;;;;;;5014811;28;20117;-63
2021/09/08 06:35:30;;;;;;;24.45;14.77;;;;;;;;;;5013595;28;20416;-63
2021/09/08 06:37:55;;;;;;;27.10;14.90;;;;;;;;;;5015349;28;20358;-63
2021/09/08 06:40:21;;;;;;;23.33;13.65;;;;;;;;;;5013692;28;20096;-63
2021/09/08 06:42:46;;;;;;;28.30;13.88;;;;;;;;;;5015378;28;20105;-63
2021/09/08 06:45:11;;;;;;;29.80;14.25;;;;;;;;;;5014898;28;20197;-63
2021/09/08 06:47:36;;;;;;;26.52;14.27;;;;;;;;;;5015482;28;20029;-64
2021/09/08 06:50:03;;;;;;;22.70;13.38;;;;;;;;;;5014746;28;20439;-63
2021/09/08 06:52:28;;;;;;;22.92;14.48;;;;;;;;;;5015498;28;20081;-63
2021/09/08 06:54:53;;;;;;;27.30;15.55;;;;;;;;;;5015155;28;20069;-63
2021/09/08 06:57:18;;;;;;;30.03;16.17;;;;;;;;;;5014530;28;20034;-62
2021/09/08 06:59:44;;;;;;;35.53;14.93;;;;;;;;;;5013569;28;20819;-64
2021/09/08 07:02:09;;;;;;;30.48;15.20;;;;;;;;;;5014502;28;20030;-64
2021/09/08 07:04:34;;;;;;;25.65;15.15;;;;;;;;;;5014816;28;20026;-62
2021/09/08 07:06:59;;;;;;;38.72;15.50;;;;;;;;;;5014323;28;20114;-62
2021/09/08 07:09:25;;;;;;;39.60;16.42;;;;;;;;;;5014664;28;20070;-62
2021/09/08 07:11:50;;;;;;;38.10;15.80;;;;;;;;;;5014259;28;20396;-62
2021/09/08 07:14:15;;;;;;;45.78;17.17;;;;;;;;;;5014689;28;20525;-62
2021/09/08 07:16:40;;;;;;;47.20;17.75;;;;;;;;;;5012815;28;20038;-62
2021/09/08 07:19:06;;;;;;;38.38;17.33;;;;;;;;;;5014575;28;20105;-62
2021/09/08 07:21:31;;;;;;;34.70;16.45;;;;;;;;;;5014186;28;20491;-62
2021/09/08 07:23:56;;;;;;;44.15;17.95;;;;;;;;;;5014753;28;20354;-62
2021/09/08 07:26:21;;;;;;;36.45;15.95;;;;;;;;;;5012439;28;20503;-62
2021/09/08 07:28:47;;;;;;;50.92;17.70;;;;;;;;;;5014254;28;20014;-62
2021/09/08 07:31:12;;;;;;;46.38;17.02;;;;;;;;;;5014009;28;20049;-62
2021/09/08 07:33:37;;;;;;;42.03;16.77;;;;;;;;;;5014102;28;20465;-62
2021/09/08 07:36:02;;;;;;;48.85;16.45;;;;;;;;;;5013998;28;20391;-62
2021/09/08 07:38:28;;;;;;;52.70;18.27;;;;;;;;;;5014387;28;20033;-63
2021/09/08 07:40:53;;;;;;;46.97;17.35;;;;;;;;;;5013985;28;20038;-63
2021/09/08 07:43:18;;;;;;;55.95;17.45;;;;;;;;;;5013961;28;20022;-63
2021/09/08 07:45:44;;;;;;;49.15;16.38;;;;;;;;;;5012978;28;20029;-63
2021/09/08 07:48:09;;;;;;;44.13;17.73;;;;;;;;;;5013951;28;20022;-63
2021/09/08 07:50:34;;;;;;;41.33;16.67;;;;;;;;;;5013555;28;20310;-63
2021/09/08 07:53:02;;;;;;;49.28;17.52;;;;;;;;;;5014193;28;20764;-63
2021/09/08 07:55:27;;;;;;;46.75;16.65;;;;;;;;;;5013533;28;20053;-63
2021/09/08 07:57:53;;;;;;;35.25;15.07;;;;;;;;;;5013870;28;20477;-63
2021/09/08 08:00:18;;;;;;;37.10;15.00;;;;;;;;;;5013396;28;20014;-63
2021/09/08 08:02:47;;;;;;;33.90;14.52;;;;;;;;;;5013911;28;20021;-63
2021/09/08 08:05:14;;;;;;;38.70;14.63;;;;;;;;;;5013692;28;20065;-63
2021/09/08 08:07:39;;;;;;;39.40;15.85;;;;;;;;;;5012452;28;20014;-63
2021/09/08 08:10:05;;;;;;;38.97;15.95;;;;;;;;;;5013222;28;20412;-63
2021/09/08 08:12:30;;;;;;;36.45;16.23;;;;;;;;;;5012314;28;20032;-63
2021/09/08 08:14:55;;;;;;;45.42;16.55;;;;;;;;;;5013669;28;20040;-63
2021/09/08 08:17:21;;;;;;;35.50;15.50;;;;;;;;;;5013261;28;20049;-63
2021/09/08 08:19:47;;;;;;;43.65;16.27;;;;;;;;;;5013371;28;20029;-63
2021/09/08 08:22:13;;;;;;;29.73;15.40;;;;;;;;;;5012394;28;20129;-63
2021/09/08 08:24:38;;;;;;;33.83;14.57;;;;;;;;;;5013861;28;20064;-64
2021/09/08 08:27:04;;;;;;;45.25;15.77;;;;;;;;;;5013057;28;20049;-63
2021/09/08 08:29:30;;;;;;;41.70;16.33;;;;;;;;;;5013479;28;20040;-63
2021/09/08 08:31:55;;;;;;;33.67;15.07;;;;;;;;;;5012950;28;20022;-63
2021/09/08 08:34:20;;;;;;;29.30;15.38;;;;;;;;;;5013251;28;20034;-63
2021/09/08 08:36:45;;;;;;;27.05;13.73;;;;;;;;;;5012983;28;20092;-63
2021/09/08 08:39:10;;;;;;;42.83;13.52;;;;;;;;;;5013406;28;20230;-64
2021/09/08 08:41:38;;;;;;;30.25;13.35;;;;;;;;;;5013195;28;20052;-63
2021/09/08 08:44:04;;;;;;;34.40;14.60;;;;;;;;;;5012696;28;20080;-63
2021/09/08 08:46:29;;;;;;;44.90;14.38;;;;;;;;;;5011513;28;20038;-63
2021/09/08 08:48:54;;;;;;;43.65;13.85;;;;;;;;;;5013423;28;20053;-63
2021/09/08 08:51:19;;;;;;;48.40;13.98;;;;;;;;;;5012701;28;20042;-63
2021/09/08 08:53:48;;;;;;;47.70;14.57;;;;;;;;;;5013269;28;20105;-63
2021/09/08 08:56:14;;;;;;;43.55;14.65;;;;;;;;;;5012778;28;20329;-63
2021/09/08 08:58:39;;;;;;;50.28;14.20;;;;;;;;;;5013121;28;20017;-63
2021/09/08 09:01:13;;;;;;;49.85;14.73;;;;;;;;;;5012592;28;20497;-63
2021/09/08 09:03:39;;;;;;;44.47;13.30;;;;;;;;;;5012954;28;20026;-63
2021/09/08 09:06:04;;;;;;;39.85;13.43;;;;;;;;;;5012548;28;20022;-63
2021/09/08 09:08:33;;;;;;;26.67;12.63;;;;;;;;;;5012807;28;20060;-63
2021/09/08 09:10:58;;;;;;;25.00;12.25;;;;;;;;;;5012601;28;20036;-63
2021/09/08 09:13:29;;;;;;;37.72;12.95;;;;;;;;;;5012805;28;20022;-63
2021/09/08 09:16:05;;;;;;;22.52;12.23;;;;;;;;;;5011204;28;20472;-63
2021/09/08 09:18:36;;;;;;;27.25;13.02;;;;;;;;;;5013258;28;20439;-63
2021/09/08 09:21:03;;;;;;;27.05;12.60;;;;;;;;;;5012565;28;20026;-63
2021/09/08 09:23:39;;;;;;;26.08;12.00;;;;;;;;;;5011649;28;20100;-64
2021/09/08 09:26:05;;;;;;;25.55;11.88;;;;;;;;;;5012776;28;20026;-64
2021/09/08 09:28:31;;;;;;;19.52;11.43;;;;;;;;;;5011955;28;20029;-64
2021/09/08 09:30:56;;;;;;;22.35;11.10;;;;;;;;;;5011218;28;20026;-64
2021/09/08 09:33:28;;;;;;;18.03;11.70;;;;;;;;;;5011819;28;20029;-64
2021/09/08 09:35:53;;;;;;;21.30;11.48;;;;;;;;;;5012593;28;20365;-64
2021/09/08 09:38:19;;;;;;;25.30;11.93;;;;;;;;;;5013038;28;20045;-64
2021/09/08 09:40:44;;;;;;;20.60;11.85;;;;;;;;;;5011431;28;20076;-64
2021/09/08 09:43:12;;;;;;;18.10;11.73;;;;;;;;;;5012947;28;20026;-64
2021/09/08 09:45:38;;;;;;;18.52;11.65;;;;;;;;;;5012253;28;20026;-64
2021/09/08 09:48:03;;;;;;;24.88;12.40;;;;;;;;;;5012710;28;20026;-64
2021/09/08 09:50:29;;;;;;;19.67;11.73;;;;;;;;;;5012358;28;20019;-64
2021/09/08 09:52:54;;;;;;;17.98;11.38;;;;;;;;;;5012643;28;20026;-64
2021/09/08 09:55:19;;;;;;;16.20;11.20;;;;;;;;;;4994514;28;20061;-64
2021/09/08 09:57:45;;;;;;;20.38;11.55;;;;;;;;;;5012580;28;20049;-64
2021/09/08 10:00:10;;;;;;;23.52;11.38;;;;;;;;;;5012465;28;20495;-64
2021/09/08 10:02:36;;;;;;;18.58;10.63;;;;;;;;;;5012605;28;20022;-64
2021/09/08 10:05:03;;;;;;;23.10;11.27;;;;;;;;;;5012170;28;20049;-64
2021/09/08 10:07:28;;;;;;;16.10;10.80;;;;;;;;;;5013439;28;20033;-64
2021/09/08 10:09:57;;;;;;;20.63;11.32;;;;;;;;;;5015830;28;20099;-64
2021/09/08 10:12:23;;;;;;;15.68;10.88;;;;;;;;;;5015683;28;20038;-64
2021/09/08 10:14:49;;;;;;;15.90;10.50;;;;;;;;;;5016026;28;20095;-64
2021/09/08 10:17:16;;;;;;;15.70;10.85;;;;;;;;;;5014595;28;20038;-64
2021/09/08 10:19:42;;;;;;;19.73;11.25;;;;;;;;;;5015184;28;20380;-64
2021/09/08 10:22:08;;;;;;;21.33;10.63;;;;;;;;;;5015734;28;20026;-63
2021/09/08 10:24:33;;;;;;;15.18;10.77;;;;;;;;;;5015508;28;20072;-64
2021/09/08 10:26:58;;;;;;;20.50;11.10;;;;;;;;;;5015443;28;20034;-64
2021/09/08 10:29:27;;;;;;;15.55;9.95;;;;;;;;;;5015733;28;20022;-64
2021/09/08 10:31:52;;;;;;;15.75;10.52;;;;;;;;;;5015217;28;20137;-64
2021/09/08 10:34:17;;;;;;;14.65;10.18;;;;;;;;;;5014211;28;20531;-64
2021/09/08 10:36:45;;;;;;;15.18;10.48;;;;;;;;;;5013888;28;20041;-64
2021/09/08 10:39:11;;;;;;;19.23;10.93;;;;;;;;;;5014165;28;20014;-63
2021/09/08 10:41:40;;;;;;;17.23;11.05;;;;;;;;;;5014975;28;20041;-64
2021/09/08 10:44:05;;;;;;;22.88;10.70;;;;;;;;;;5014378;28;20105;-63
2021/09/08 10:46:51;;;;;;;14.48;10.00;;;;;;;;;;5015041;28;20072;-64
2021/09/08 10:49:35;;;;;;;16.05;11.35;;;;;;;;;;5014643;28;20092;-64
2021/09/08 10:52:00;;;;;;;14.73;9.98;;;;;;;;;;5014864;28;20125;-64
2021/09/08 10:54:25;;;;;;;17.48;11.68;;;;;;;;;;5014990;28;20521;-64
2021/09/08 10:56:52;;;;;;;14.82;10.65;;;;;;;;;;5014982;28;20520;-64
2021/09/08 10:59:18;;;;;;;17.17;10.45;;;;;;;;;;5014003;28;20441;-64
2021/09/08 11:01:43;;;;;;;14.07;10.00;;;;;;;;;;5014672;28;20042;-64
2021/09/08 11:04:12;;;;;;;19.23;10.27;;;;;;;;;;5013734;28;20376;-64
2021/09/08 11:06:40;;;;;;;13.47;9.93;;;;;;;;;;5014692;28;20117;-64
2021/09/08 11:09:07;;;;;;;16.40;10.73;;;;;;;;;;5014758;28;20120;-64
2021/09/08 11:11:32;;;;;;;13.23;10.50;;;;;;;;;;5014560;28;20526;-64
2021/09/08 11:13:57;;;;;;;15.77;10.43;;;;;;;;;;5014862;28;20077;-63
2021/09/08 11:16:26;;;;;;;18.88;10.32;;;;;;;;;;5014510;28;20057;-65
2021/09/08 11:18:52;;;;;;;16.00;9.55;;;;;;;;;;5015058;28;20025;-65
2021/09/08 11:21:17;;;;;;;16.45;9.77;;;;;;;;;;4997061;28;20077;-63
2021/09/08 11:23:47;;;;;;;15.57;10.38;;;;;;;;;;5013592;28;20472;-64
2021/09/08 11:26:12;;;;;;;17.30;10.13;;;;;;;;;;5014314;28;20117;-66
2021/09/08 11:28:38;;;;;;;17.10;9.55;;;;;;;;;;5013733;28;20104;-65
2021/09/08 11:31:16;;;;;;;13.63;10.05;;;;;;;;;;5012808;28;20033;-66
2021/09/08 11:33:42;;;;;;;14.38;9.85;;;;;;;;;;5014324;28;20065;-65
2021/09/08 11:36:11;;;;;;;16.38;10.43;;;;;;;;;;5014037;28;20558;-66
2021/09/08 11:38:40;;;;;;;19.00;10.73;;;;;;;;;;5013377;28;20041;-65
2021/09/08 11:41:05;;;;;;;13.60;9.70;;;;;;;;;;5013656;28;20421;-64
2021/09/08 11:43:37;;;;;;;14.50;9.93;;;;;;;;;;5013066;28;20021;-64
2021/09/08 11:46:12;;;;;;;14.93;9.82;;;;;;;;;;5012655;28;20030;-64
2021/09/08 11:48:37;;;;;;;14.38;9.43;;;;;;;;;;5014135;28;20461;-64
2021/09/08 11:51:03;;;;;;;16.60;10.27;;;;;;;;;;5013790;28;20045;-64
2021/09/08 11:53:28;;;;;;;14.52;10.82;;;;;;;;;;5014130;28;20084;-64
2021/09/08 11:55:54;;;;;;;15.40;10.77;;;;;;;;;;5013485;28;20040;-64
2021/09/08 11:58:19;;;;;;;18.67;10.07;;;;;;;;;;5012606;28;20113;-64
2021/09/08 12:00:58;;;;;;;13.77;9.73;;;;;;;;;;5013508;28;20473;-64
2021/09/08 12:03:23;;;;;;;22.30;10.50;;;;;;;;;;5013973;28;20049;-64
2021/09/08 12:05:49;;;;;;;17.83;10.55;;;;;;;;;;5013533;28;20049;-64
2021/09/08 12:08:21;;;;;;;17.83;10.35;;;;;;;;;;5013587;28;20018;-64
2021/09/08 12:10:46;;;;;;;16.40;9.68;;;;;;;;;;5013277;28;20034;-63
2021/09/08 12:13:11;;;;;;;19.10;9.65;;;;;;;;;;5013607;28;20104;-64
2021/09/08 12:15:36;;;;;;;13.52;9.73;;;;;;;;;;5011803;28;20080;-65
2021/09/08 12:18:18;;;;;;;15.05;9.77;;;;;;;;;;5013684;28;20054;-64
2021/09/08 12:20:43;;;;;;;13.30;8.68;;;;;;;;;;5013045;28;20022;-64
2021/09/08 12:23:25;;;;;;;19.65;9.60;;;;;;;;;;5013520;28;20041;-64
2021/09/08 12:26:06;;;;;;;17.50;9.27;;;;;;;;;;5012970;28;20030;-64
2021/09/08 12:28:31;;;;;;;15.52;8.80;;;;;;;;;;5013548;28;20026;-64
2021/09/08 12:31:18;;;;;;;17.92;9.68;;;;;;;;;;5012514;28;20029;-64
2021/09/08 12:33:56;;;;;;;15.50;9.73;;;;;;;;;;5013225;28;20048;-64
2021/09/08 12:36:22;;;;;;;12.75;8.93;;;;;;;;;;5013050;28;20400;-65
2021/09/08 12:38:53;;;;;;;12.15;8.20;;;;;;;;;;5013238;28;20022;-64
2021/09/08 12:41:18;;;;;;;13.15;8.27;;;;;;;;;;5012996;28;20524;-64
2021/09/08 12:43:43;;;;;;;19.00;8.27;;;;;;;;;;5013054;28;20069;-64
2021/09/08 12:46:08;;;;;;;12.57;7.77;;;;;;;;;;5012752;28;20036;-64
2021/09/08 12:48:34;;;;;;;12.93;8.00;;;;;;;;;;5013143;28;20258;-64
2021/09/08 12:50:59;;;;;;;13.38;7.53;;;;;;;;;;5012756;28;20099;-64
2021/09/08 12:53:24;;;;;;;10.32;7.43;;;;;;;;;;5013041;28;20060;-64
2021/09/08 12:55:49;;;;;;;12.10;7.63;;;;;;;;;;5011518;28;20042;-64
2021/09/08 12:58:15;;;;;;;14.60;7.57;;;;;;;;;;5013124;28;20026;-64
2021/09/08 13:00:40;;;;;;;11.55;7.32;;;;;;;;;;5012638;28;20030;-64
2021/09/08 13:03:05;;;;;;;14.00;8.05;;;;;;;;;;5012937;28;20022;-64
2021/09/08 13:05:30;;;;;;;10.80;7.27;;;;;;;;;;5012697;28;20029;-64
2021/09/08 13:07:56;;;;;;;16.25;8.23;;;;;;;;;;5012775;28;20251;-64
2021/09/08 13:10:21;;;;;;;10.40;7.38;;;;;;;;;;5012267;28;20100;-65
2021/09/08 13:12:46;;;;;;;15.32;7.60;;;;;;;;;;5012757;28;20065;-64
2021/09/08 13:15:11;;;;;;;13.80;7.15;;;;;;;;;;5011123;28;20041;-64
2021/09/08 13:17:37;;;;;;;12.85;8.07;;;;;;;;;;5012710;28;20069;-65
2021/09/08 13:20:02;;;;;;;10.38;6.63;;;;;;;;;;5012323;28;20068;-65
2021/09/08 13:22:27;;;;;;;9.77;6.68;;;;;;;;;;5011427;28;20135;-64
2021/09/08 13:24:52;;;;;;;11.57;7.60;;;;;;;;;;5012665;28;20022;-64
2021/09/08 13:27:18;;;;;;;37.33;9.57;;;;;;;;;;5010931;28;20037;-64
2021/09/08 13:29:43;;;;;;;21.55;8.27;;;;;;;;;;5012659;28;20029;-64
2021/09/08 13:32:08;;;;;;;13.52;8.00;;;;;;;;;;5012475;28;20106;-64
2021/09/08 13:34:33;;;;;;;12.68;7.50;;;;;;;;;;5012597;28;20022;-65
2021/09/08 13:36:59;;;;;;;13.70;8.40;;;;;;;;;;5011681;28;20520;-64
2021/09/08 13:39:24;;;;;;;11.07;7.63;;;;;;;;;;5012678;28;20042;-64
2021/09/08 13:41:49;;;;;;;10.90;7.35;;;;;;;;;;5012296;28;20057;-64
2021/09/08 13:44:14;;;;;;;14.60;7.75;;;;;;;;;;5016433;28;20652;-64
2021/09/08 13:46:40;;;;;;;10.30;7.43;;;;;;;;;;5015860;28;20472;-64
2021/09/08 13:49:05;;;;;;;11.02;7.38;;;;;;;;;;5015292;28;20033;-64
2021/09/08 13:51:31;;;;;;;11.15;7.60;;;;;;;;;;5016030;28;20164;-64
2021/09/08 13:53:56;;;;;;;17.83;8.25;;;;;;;;;;5016324;28;20018;-64
2021/09/08 13:56:21;;;;;;;12.05;7.72;;;;;;;;;;5015882;28;20084;-65
2021/09/08 13:58:47;;;;;;;14.10;7.80;;;;;;;;;;5016270;28;20018;-64
2021/09/08 14:01:12;;;;;;;11.05;7.10;;;;;;;;;;5015739;28;20496;-64
2021/09/08 14:03:37;;;;;;;11.13;7.47;;;;;;;;;;5016148;28;20022;-63
2021/09/08 14:06:02;;;;;;;12.70;7.75;;;;;;;;;;5015570;28;20109;-63
2021/09/08 14:08:28;;;;;;;17.30;7.70;;;;;;;;;;5015990;28;20080;-64
2021/09/08 14:10:54;;;;;;;11.02;7.30;;;;;;;;;;5015758;28;20038;-65